Time;durP1;ratioP1;P1;durP2;ratioP2;P2;SDS_P1;SDS_P2;PMS_P1;PMS_P2;Temp;Humidity;BMP_temperature;BMP_pressure;BME280_temperature;BME280_humidity;BME280_pressure;Samples;Min_cycle;Max_cycle;Signal;HPM_P1;HPM_P2
2021/06/23 04:32:32;;;;;;;10.93;7.90;;;17.30;99.90;;;;;;5232883;23;20501;-78
2021/06/23 04:34:59;;;;;;;8.97;7.93;;;17.40;99.90;;;;;;4992201;28;20413;-74
2021/06/23 04:37:25;;;;;;;12.50;7.93;;;17.40;99.90;;;;;;4994154;28;20583;-77
2021/06/23 04:39:50;;;;;;;8.93;8.13;;;17.50;99.90;;;;;;5010542;28;20461;-77
2021/06/23 04:42:16;;;;;;;8.93;8.03;;;17.50;99.90;;;;;;5011607;28;20221;-75
2021/06/23 04:44:42;;;;;;;12.03;7.70;;;17.50;99.90;;;;;;5012126;28;20401;-77
2021/06/23 04:47:07;;;;;;;9.77;8.90;;;17.60;99.90;;;;;;5015523;28;20681;-77
2021/06/23 04:49:33;;;;;;;8.00;7.10;;;17.60;99.90;;;;;;5015250;28;20171;-76
2021/06/23 04:51:59;;;;;;;6.80;6.20;;;17.70;99.90;;;;;;5015205;28;20240;-76
2021/06/23 04:54:24;;;;;;;7.03;6.33;;;17.80;99.90;;;;;;5015189;28;20218;-77
2021/06/23 04:56:50;;;;;;;6.80;6.20;;;17.90;99.90;;;;;;5015246;28;20504;-76
2021/06/23 04:59:15;;;;;;;7.13;6.47;;;18.10;99.90;;;;;;5015280;28;20210;-76
2021/06/23 05:01:41;;;;;;;6.20;5.70;;;18.30;99.90;;;;;;5014865;28;20202;-74
2021/06/23 05:04:06;;;;;;;6.20;5.23;;;18.70;99.90;;;;;;5014220;28;20183;-75
2021/06/23 05:06:32;;;;;;;5.40;4.90;;;19.20;99.90;;;;;;5014531;28;20179;-75
2021/06/23 05:08:57;;;;;;;5.17;4.53;;;19.80;99.90;;;;;;5014477;28;20554;-76
2021/06/23 05:11:23;;;;;;;4.03;3.67;;;20.30;99.90;;;;;;5013812;28;20195;-75
2021/06/23 05:13:49;;;;;;;4.40;4.10;;;20.80;99.90;;;;;;5014025;28;20282;-75
2021/06/23 05:16:16;;;;;;;4.80;3.33;;;20.80;99.90;;;;;;5014182;28;20727;-75
2021/06/23 05:18:41;;;;;;;7.13;3.97;;;20.90;99.90;;;;;;5014070;28;20178;-75
2021/06/23 05:21:07;;;;;;;3.47;3.20;;;20.90;99.90;;;;;;5013820;28;20540;-75
2021/06/23 05:23:33;;;;;;;4.10;3.77;;;21.20;99.90;;;;;;5013755;28;20199;-75
2021/06/23 05:25:58;;;;;;;4.00;3.40;;;21.50;99.90;;;;;;5012494;28;20174;-75
2021/06/23 05:28:24;;;;;;;5.17;2.63;;;21.80;99.90;;;;;;5013735;28;20206;-74
2021/06/23 05:30:49;;;;;;;3.13;2.50;;;22.00;99.90;;;;;;5013657;28;20193;-75
2021/06/23 05:33:15;;;;;;;3.60;2.17;;;22.40;99.90;;;;;;5013545;28;20257;-74
2021/06/23 05:35:40;;;;;;;3.07;2.43;;;22.60;99.90;;;;;;5013643;28;20549;-74
2021/06/23 05:38:06;;;;;;;2.47;2.27;;;22.60;99.90;;;;;;5013599;28;20705;-74
2021/06/23 05:40:32;;;;;;;3.53;2.03;;;22.90;99.90;;;;;;5013575;28;20183;-74
2021/06/23 05:42:57;;;;;;;2.53;2.33;;;23.30;99.90;;;;;;5013494;28;20175;-75
2021/06/23 05:45:23;;;;;;;3.63;2.13;;;23.50;99.90;;;;;;5013458;28;20178;-74
2021/06/23 05:47:48;;;;;;;4.50;1.57;;;23.70;99.90;;;;;;5013410;28;20217;-75
2021/06/23 05:50:14;;;;;;;4.33;1.50;;;23.70;99.90;;;;;;5013146;28;20175;-75
2021/06/23 05:52:39;;;;;;;2.77;1.67;;;23.70;99.90;;;;;;5013259;28;20195;-74
2021/06/23 05:55:06;;;;;;;6.30;1.53;;;24.00;99.90;;;;;;5013004;28;20171;-75
2021/06/23 05:57:32;;;;;;;1.53;1.47;;;24.20;99.90;;;;;;5012394;28;20190;-74
2021/06/23 05:59:57;;;;;;;1.60;1.40;;;24.20;99.90;;;;;;5013116;28;20413;-75
2021/06/23 06:02:23;;;;;;;1.43;1.33;;;24.20;99.90;;;;;;5032435;28;20301;-75
2021/06/23 06:04:48;;;;;;;1.70;1.60;;;24.10;99.90;;;;;;5033024;28;20265;-75
2021/06/23 06:07:14;;;;;;;1.80;1.70;;;24.00;99.90;;;;;;5032729;28;20202;-75
2021/06/23 06:09:39;;;;;;;1.90;1.80;;;24.30;99.90;;;;;;5032968;28;20627;-76
2021/06/23 06:12:05;;;;;;;1.90;1.80;;;24.40;99.90;;;;;;5032584;28;20194;-74
2021/06/23 06:14:31;;;;;;;5.03;1.90;;;24.50;99.90;;;;;;5032794;28;20256;-74
2021/06/23 06:16:57;;;;;;;2.00;1.40;;;24.80;99.90;;;;;;5032683;28;20864;-74
2021/06/23 06:19:22;;;;;;;2.63;1.43;;;24.90;99.90;;;;;;5032715;28;20215;-74
2021/06/23 06:21:48;;;;;;;7.00;1.77;;;25.20;99.90;;;;;;5032524;28;20198;-75
2021/06/23 06:24:13;;;;;;;1.97;1.30;;;25.20;99.90;;;;;;5032301;28;20184;-74
2021/06/23 06:26:39;;;;;;;3.60;2.30;;;25.40;99.90;;;;;;5032500;28;20594;-74
2021/06/23 06:29:05;;;;;;;5.77;1.30;;;25.40;99.90;;;;;;5032488;28;20178;-74
2021/06/23 06:31:30;;;;;;;2.77;1.53;;;25.20;99.90;;;;;;5032321;28;20432;-75
2021/06/23 06:33:56;;;;;;;2.40;1.60;;;25.30;99.90;;;;;;5032147;28;20227;-74
2021/06/23 06:36:22;;;;;;;2.83;1.70;;;25.20;99.90;;;;;;5032338;28;20190;-75
2021/06/23 06:38:47;;;;;;;6.73;1.80;;;25.20;99.90;;;;;;5032343;28;20940;-76
2021/06/23 06:41:13;;;;;;;5.27;1.87;;;25.10;99.90;;;;;;5032465;28;20210;-75
2021/06/23 06:43:38;;;;;;;4.60;1.97;;;24.80;99.90;;;;;;5032296;28;20178;-74
2021/06/23 06:46:04;;;;;;;3.77;2.00;;;24.60;99.90;;;;;;5031972;28;20316;-74
2021/06/23 06:48:29;;;;;;;2.20;1.77;;;24.30;99.90;;;;;;5032153;28;20216;-74
2021/06/23 06:50:55;;;;;;;3.33;1.50;;;23.80;99.90;;;;;;5031989;28;20650;-75
2021/06/23 06:53:20;;;;;;;2.07;1.40;;;23.50;99.90;;;;;;5032011;28;20182;-76
2021/06/23 06:55:47;;;;;;;2.60;1.40;;;23.20;99.90;;;;;;5032340;28;20195;-76
2021/06/23 06:58:13;;;;;;;1.30;1.20;;;23.30;99.90;;;;;;5033792;28;20170;-75
2021/06/23 07:00:39;;;;;;;1.90;1.23;;;23.80;99.90;;;;;;5033199;28;20491;-75
2021/06/23 07:03:05;;;;;;;2.57;1.40;;;24.40;99.90;;;;;;5032596;28;20500;-76
2021/06/23 07:05:31;;;;;;;1.57;1.47;;;25.00;99.90;;;;;;5032800;28;20409;-76
2021/06/23 07:07:56;;;;;;;1.40;1.30;;;25.40;99.90;;;;;;5032251;28;20483;-76
2021/06/23 07:10:22;;;;;;;2.30;1.30;;;25.00;99.90;;;;;;5032726;28;20178;-76
2021/06/23 07:12:47;;;;;;;1.97;1.87;;;24.80;99.90;;;;;;5032148;28;20193;-75
2021/06/23 07:15:13;;;;;;;3.77;1.60;;;24.60;99.90;;;;;;5031940;28;20178;-76
2021/06/23 07:17:39;;;;;;;1.53;1.43;;;24.80;99.90;;;;;;5031633;28;20257;-76
2021/06/23 07:20:06;;;;;;;3.83;2.30;;;24.80;99.90;;;;;;5031469;28;20508;-76
2021/06/23 07:22:31;;;;;;;2.57;2.30;;;24.80;99.90;;;;;;5031357;28;20202;-75
2021/06/23 07:24:57;;;;;;;3.40;1.87;;;24.80;99.90;;;;;;5031239;28;20459;-74
2021/06/23 07:27:23;;;;;;;3.40;1.83;;;24.90;99.90;;;;;;5031186;28;20294;-75
2021/06/23 07:29:49;;;;;;;3.37;2.23;;;25.00;99.90;;;;;;5031499;28;20189;-75
2021/06/23 07:32:31;;;;;;;3.57;2.10;;;25.10;99.90;;;;;;5030899;28;20452;-75
2021/06/23 07:37:41;;;;;;;4.30;1.83;;;24.90;99.90;;;;;;5031104;28;20416;-75
2021/06/23 07:40:07;;;;;;;1.97;1.80;;;24.80;99.90;;;;;;5031001;28;20416;-75
2021/06/23 07:42:33;;;;;;;2.57;1.80;;;25.00;99.90;;;;;;5031113;28;20201;-75
2021/06/23 07:45:01;;;;;;;1.60;1.50;;;25.40;99.90;;;;;;5030742;28;20424;-75
2021/06/23 07:47:29;;;;;;;2.00;1.90;;;25.80;99.90;;;;;;5030828;28;20207;-76
2021/06/23 07:49:55;;;;;;;1.70;1.60;;;25.80;99.90;;;;;;5030837;28;20405;-76
2021/06/23 07:55:54;;;;;;;4.83;3.10;;;26.50;99.90;;;;;;5030959;28;20181;-75
2021/06/23 08:09:23;;;;;;;3.73;1.87;;;26.90;99.90;;;;;;4969741;28;20446;-72
2021/06/23 08:11:53;;;;;;;2.90;1.70;;;27.20;99.90;;;;;;5025931;28;20456;-75
2021/06/23 08:14:19;;;;;;;3.13;1.80;;;27.20;99.90;;;;;;5030447;28;20419;-74
2021/06/23 08:16:46;;;;;;;4.90;1.67;;;27.10;99.90;;;;;;5030688;28;20409;-75
2021/06/23 08:19:11;;;;;;;1.83;1.53;;;27.40;99.90;;;;;;5030895;28;20428;-75
2021/06/23 08:21:37;;;;;;;1.77;1.67;;;28.00;99.90;;;;;;5034507;28;20435;-75
2021/06/23 08:24:03;;;;;;;2.40;2.20;;;28.10;99.90;;;;;;5028948;28;20564;-75
2021/06/23 08:26:28;;;;;;;1.87;1.70;;;27.70;99.90;;;;;;5014113;28;20256;-74
2021/06/23 08:28:54;;;;;;;3.43;1.70;;;27.10;99.90;;;;;;5014660;28;20461;-74
2021/06/23 08:31:20;;;;;;;2.03;1.90;;;26.50;99.90;;;;;;5014595;28;20225;-74
2021/06/23 08:33:45;;;;;;;2.07;1.80;;;26.10;99.90;;;;;;5014546;28;20194;-74
2021/06/23 08:36:11;;;;;;;2.17;1.80;;;25.60;99.90;;;;;;5014508;28;20528;-74
2021/06/23 08:38:37;;;;;;;3.50;2.20;;;25.00;99.90;;;;;;5014558;28;20183;-74
2021/06/23 08:41:02;;;;;;;2.20;1.90;;;24.60;99.90;;;;;;5014229;28;20687;-73
2021/06/23 08:43:28;;;;;;;5.50;2.87;;;24.30;99.90;;;;;;5014426;28;20420;-76
2021/06/23 08:45:54;;;;;;;5.60;2.67;;;24.40;99.90;;;;;;4996706;28;20185;-76
2021/06/23 08:48:19;;;;;;;3.90;2.87;;;24.90;99.90;;;;;;5014151;28;20210;-75
2021/06/23 08:50:45;;;;;;;3.53;2.13;;;25.10;99.90;;;;;;5014284;28;20182;-73
2021/06/23 08:53:11;;;;;;;4.83;1.97;;;24.80;99.90;;;;;;5014127;28;20660;-73
2021/06/23 08:55:37;;;;;;;6.50;2.47;;;24.60;99.90;;;;;;5014445;28;20270;-73
2021/06/23 08:58:04;;;;;;;2.70;2.47;;;24.50;99.90;;;;;;5014381;28;20226;-73
2021/06/23 09:00:30;;;;;;;3.27;2.20;;;24.60;99.90;;;;;;5014336;28;20426;-72
2021/06/23 09:03:05;;;;;;;3.30;2.33;;;25.00;99.90;;;;;;5014008;28;20441;-72
2021/06/23 09:05:46;;;;;;;6.70;3.10;;;24.70;99.90;;;;;;5014124;28;20186;-71
2021/06/23 09:08:12;;;;;;;5.63;4.17;;;24.50;99.90;;;;;;5013998;28;20457;-73
2021/06/23 09:10:37;;;;;;;6.23;3.77;;;24.50;99.90;;;;;;5013811;28;20421;-72
2021/06/23 09:13:03;;;;;;;6.17;2.93;;;24.50;99.90;;;;;;5013773;28;20198;-73
2021/06/23 09:15:53;;;;;;;2.93;2.63;;;24.40;99.90;;;;;;5014082;28;20217;-72
2021/06/23 09:18:29;;;;;;;3.00;2.80;;;24.30;99.90;;;;;;5013901;28;20651;-69
2021/06/23 09:20:58;;;;;;;5.80;3.53;;;24.20;99.90;;;;;;5013733;28;20449;-72
2021/06/23 09:23:38;;;;;;;8.13;3.90;;;23.90;99.90;;;;;;5013771;28;20986;-73
2021/06/23 09:26:17;;;;;;;3.50;3.30;;;23.50;99.90;;;;;;5013946;28;20919;-71
2021/06/23 09:28:43;;;;;;;5.47;4.23;;;23.20;99.90;;;;;;5013499;28;20492;-72
2021/06/23 09:31:09;;;;;;;3.60;3.30;;;23.00;99.90;;;;;;5012476;28;20445;-71
2021/06/23 09:33:35;;;;;;;5.17;3.27;;;22.80;99.90;;;;;;5013037;28;20405;-71
2021/06/23 09:36:10;;;;;;;5.43;3.57;;;22.70;99.90;;;;;;5013762;28;20413;-73
2021/06/23 09:38:50;;;;;;;7.67;3.07;;;22.70;99.90;;;;;;5013807;28;20216;-72
2021/06/23 09:41:32;;;;;;;3.00;2.70;;;23.30;99.90;;;;;;5013430;28;20441;-72
2021/06/23 09:44:07;;;;;;;3.30;2.77;;;24.40;99.90;;;;;;5013228;28;20472;-70
2021/06/23 09:46:40;;;;;;;6.17;2.77;;;25.60;99.90;;;;;;5013199;28;20984;-70
2021/06/23 09:49:20;;;;;;;3.10;2.90;;;25.50;99.90;;;;;;5013440;28;20432;-71
2021/06/23 09:52:14;;;;;;;4.20;2.50;;;25.10;99.90;;;;;;5013241;28;20433;-72
2021/06/23 09:54:51;;;;;;;2.80;2.60;;;24.60;99.90;;;;;;5012959;28;20766;-73
2021/06/23 09:57:18;;;;;;;2.80;2.50;;;24.30;99.90;;;;;;5013235;28;20416;-70
2021/06/23 09:59:58;;;;;;;2.63;2.43;;;24.00;99.90;;;;;;5013026;28;20437;-71
2021/06/23 10:02:32;;;;;;;2.70;2.50;;;23.70;99.90;;;;;;5012951;28;20422;-71
2021/06/23 10:05:00;;;;;;;4.20;2.77;;;23.40;99.90;;;;;;5012871;28;20408;-71
2021/06/23 10:07:47;;;;;;;2.40;2.20;;;23.30;99.90;;;;;;5012666;28;20848;-71
2021/06/23 10:10:18;;;;;;;4.27;2.33;;;23.20;99.90;;;;;;5013137;28;20460;-70
2021/06/23 10:12:54;;;;;;;3.30;3.00;;;23.20;99.90;;;;;;5012340;28;20569;-71
2021/06/23 10:15:20;;;;;;;2.33;1.97;;;23.10;99.90;;;;;;5010623;28;20918;-71
2021/06/23 10:17:46;;;;;;;2.90;2.10;;;23.20;99.90;;;;;;5010839;28;20456;-70
2021/06/23 10:20:14;;;;;;;2.20;2.10;;;23.30;99.90;;;;;;5011557;28;20844;-75
2021/06/23 10:22:42;;;;;;;8.47;2.20;;;23.30;99.90;;;;;;5011368;28;20194;-75
2021/06/23 10:25:11;;;;;;;1.97;1.87;;;23.30;99.90;;;;;;5012937;28;20501;-75
2021/06/23 10:27:42;;;;;;;2.80;1.87;;;23.30;99.90;;;;;;5012330;28;20456;-75
2021/06/23 10:30:09;;;;;;;2.00;1.90;;;23.50;99.90;;;;;;5012728;28;20417;-76
2021/06/23 10:32:34;;;;;;;4.67;1.40;;;24.30;99.90;;;;;;5012171;28;20541;-76
2021/06/23 10:35:00;;;;;;;1.73;1.30;;;24.60;99.90;;;;;;4994975;28;20509;-76
2021/06/23 10:37:28;;;;;;;1.10;1.00;;;25.30;99.90;;;;;;5012543;28;20307;-76
2021/06/23 10:39:55;;;;;;;1.23;1.00;;;25.60;99.90;;;;;;5012527;28;20182;-75
2021/06/23 10:42:22;;;;;;;2.07;1.20;;;25.70;99.90;;;;;;5011759;28;20473;-76
2021/06/23 10:44:55;;;;;;;1.90;1.57;;;25.50;99.90;;;;;;5012007;28;20418;-76
2021/06/23 10:47:30;;;;;;;0.97;0.93;;;25.50;99.90;;;;;;5012401;28;20993;-75
2021/06/23 10:49:57;;;;;;;1.47;0.90;;;26.10;99.90;;;;;;5012300;28;20424;-76
2021/06/23 10:52:22;;;;;;;1.00;1.00;;;27.30;99.90;;;;;;5012158;28;20434;-76
2021/06/23 10:54:49;;;;;;;0.90;0.90;;;28.20;99.90;;;;;;5011829;28;20422;-75
2021/06/23 10:57:39;;;;;;;1.10;1.00;;;29.20;99.90;;;;;;5012108;28;20674;-76
2021/06/23 11:00:11;;;;;;;1.17;0.97;;;30.10;99.90;;;;;;5012140;28;20412;-76
2021/06/23 11:02:40;;;;;;;1.50;0.90;;;30.90;99.90;;;;;;5011626;28;20953;-76
2021/06/23 11:05:07;;;;;;;1.03;0.80;;;31.20;99.90;;;;;;5011925;28;20985;-76
2021/06/23 11:07:37;;;;;;;1.17;0.90;;;31.20;99.90;;;;;;5012684;28;20464;-76
2021/06/23 11:10:12;;;;;;;0.70;0.70;;;31.10;99.90;;;;;;5013162;28;20414;-76
2021/06/23 11:12:47;;;;;;;0.90;0.90;;;31.00;99.90;;;;;;5011377;28;20429;-75
2021/06/23 11:15:18;;;;;;;2.17;1.00;;;30.90;99.90;;;;;;5012360;28;20401;-75
2021/06/23 11:17:45;;;;;;;0.60;0.60;;;30.60;99.90;;;;;;4990688;28;20830;-71
2021/06/23 11:20:20;;;;;;;0.70;0.70;;;30.50;99.90;;;;;;5011575;28;20525;-71
2021/06/23 11:22:50;;;;;;;2.30;0.60;;;30.40;99.90;;;;;;5011016;28;20435;-71
2021/06/23 11:25:20;;;;;;;1.83;0.63;;;30.50;99.90;;;;;;5011519;28;20416;-71
2021/06/23 11:27:45;;;;;;;1.20;0.60;;;30.10;99.90;;;;;;5011088;28;20489;-71
2021/06/23 11:30:21;;;;;;;1.10;0.80;;;30.20;99.90;;;;;;5011509;28;20513;-72
2021/06/23 11:32:47;;;;;;;1.27;0.60;;;30.50;99.90;;;;;;5010403;28;20214;-71
2021/06/23 11:35:13;;;;;;;3.73;0.70;;;30.70;99.90;;;;;;5011581;28;20412;-72
2021/06/23 11:37:39;;;;;;;1.43;0.70;;;30.70;99.90;;;;;;5011455;28;20174;-71
2021/06/23 11:40:13;;;;;;;0.73;0.53;;;30.20;99.90;;;;;;5011459;28;20425;-71
2021/06/23 11:42:39;;;;;;;1.73;0.80;;;30.00;99.90;;;;;;5011077;28;20189;-71
2021/06/23 11:45:05;;;;;;;1.80;0.70;;;29.90;99.90;;;;;;5011399;28;20410;-68
2021/06/23 11:47:31;;;;;;;1.63;0.60;;;29.80;99.90;;;;;;5011130;28;20572;-70
2021/06/23 11:49:56;;;;;;;0.90;0.60;;;29.90;99.90;;;;;;5011326;28;20409;-70
2021/06/23 11:52:22;;;;;;;0.80;0.60;;;29.80;99.90;;;;;;5011216;28;20206;-70
2021/06/23 11:54:48;;;;;;;2.00;0.90;;;29.80;99.90;;;;;;5010115;28;20177;-72
2021/06/23 11:57:13;;;;;;;0.87;0.80;;;29.60;99.90;;;;;;5011251;28;20197;-70
2021/06/23 11:59:43;;;;;;;0.60;0.60;;;29.00;99.90;;;;;;5011280;28;20520;-70
2021/06/23 12:02:09;;;;;;;0.80;0.63;;;28.60;99.90;;;;;;5011142;28;20220;-70
2021/06/23 12:04:34;;;;;;;1.47;0.60;;;28.30;99.90;;;;;;5010941;28;20426;-70
2021/06/23 12:07:00;;;;;;;0.67;0.50;;;28.00;99.90;;;;;;5011067;28;20564;-71
2021/06/23 12:09:26;;;;;;;0.53;0.50;;;27.90;99.90;;;;;;5011221;28;20200;-70
2021/06/23 12:11:52;;;;;;;2.13;0.70;;;27.90;99.90;;;;;;5010871;28;20241;-70
2021/06/23 12:14:17;;;;;;;2.30;1.00;;;28.00;99.90;;;;;;5011041;28;20821;-70
2021/06/23 12:16:44;;;;;;;1.20;0.60;;;28.20;99.90;;;;;;5010870;28;20207;-72
2021/06/23 12:19:10;;;;;;;0.50;0.50;;;28.30;99.90;;;;;;5011105;28;20542;-70
2021/06/23 12:21:36;;;;;;;0.70;0.70;;;28.30;99.90;;;;;;5010842;28;20941;-70
2021/06/23 12:24:01;;;;;;;0.80;0.60;;;28.30;99.90;;;;;;5010865;28;20406;-70
2021/06/23 12:26:27;;;;;;;1.33;0.50;;;28.10;99.90;;;;;;5011071;28;20186;-70
2021/06/23 12:28:52;;;;;;;0.90;0.60;;;28.10;99.90;;;;;;5010856;28;20202;-70
2021/06/23 12:31:18;;;;;;;0.80;0.80;;;27.90;99.90;;;;;;5010732;28;20257;-70
2021/06/23 12:33:45;;;;;;;1.80;0.63;;;27.70;99.90;;;;;;5010693;28;20171;-70
2021/06/23 12:36:11;;;;;;;0.80;0.67;;;27.40;99.90;;;;;;5010825;28;20171;-72
2021/06/23 12:38:37;;;;;;;0.60;0.60;;;27.30;99.90;;;;;;5010608;28;20452;-70
2021/06/23 12:41:03;;;;;;;0.70;0.60;;;27.10;99.90;;;;;;5010739;28;20461;-72
2021/06/23 12:43:29;;;;;;;0.70;0.60;;;26.90;99.90;;;;;;5010674;28;20620;-72
2021/06/23 12:45:54;;;;;;;1.00;0.70;;;27.00;99.90;;;;;;5010655;28;20452;-70
2021/06/23 12:48:20;;;;;;;2.30;0.87;;;27.20;99.90;;;;;;5010755;28;20206;-71
2021/06/23 12:50:45;;;;;;;0.60;0.60;;;27.50;99.90;;;;;;5010506;28;20190;-72
2021/06/23 12:53:11;;;;;;;0.60;0.50;;;27.60;99.90;;;;;;4993132;28;20163;-70
2021/06/23 12:55:36;;;;;;;0.80;0.80;;;27.70;99.90;;;;;;5010559;28;20171;-70
2021/06/23 12:58:02;;;;;;;0.70;0.70;;;27.70;99.90;;;;;;5010794;28;20181;-70
2021/06/23 13:00:28;;;;;;;3.33;0.60;;;27.90;99.90;;;;;;5010781;28;20557;-72
2021/06/23 13:02:54;;;;;;;1.57;0.90;;;27.90;99.90;;;;;;5010301;28;20439;-70
2021/06/23 13:05:19;;;;;;;0.80;0.60;;;27.90;99.90;;;;;;5010871;28;20179;-70
2021/06/23 13:07:46;;;;;;;2.60;0.70;;;28.10;99.90;;;;;;5014105;28;20676;-71
2021/06/23 13:10:14;;;;;;;2.80;1.00;;;28.30;99.90;;;;;;5014550;28;20205;-70
2021/06/23 13:12:39;;;;;;;2.90;0.90;;;28.20;99.90;;;;;;5013568;28;20430;-69
2021/06/23 13:15:06;;;;;;;5.80;1.30;;;27.60;99.90;;;;;;5014029;28;20410;-70
2021/06/23 13:17:32;;;;;;;2.17;1.40;;;27.10;99.90;;;;;;5013798;28;20202;-70
2021/06/23 13:19:58;;;;;;;3.93;1.27;;;26.50;99.90;;;;;;5014106;28;20453;-70
2021/06/23 13:22:23;;;;;;;3.83;1.10;;;26.10;99.90;;;;;;5013634;28;20272;-71
2021/06/23 13:24:49;;;;;;;0.97;0.80;;;25.90;99.90;;;;;;5013652;28;20190;-71
2021/06/23 13:27:15;;;;;;;2.43;0.90;;;25.70;99.90;;;;;;5013711;28;20190;-71
2021/06/23 13:29:41;;;;;;;10.90;2.20;;;25.60;99.90;;;;;;5013497;28;20175;-71
2021/06/23 13:32:08;;;;;;;1.20;1.10;;;25.20;99.90;;;;;;5013585;28;20210;-72
2021/06/23 13:34:36;;;;;;;3.03;0.90;;;24.80;99.90;;;;;;4993617;28;20357;-71
2021/06/23 13:37:02;;;;;;;4.07;1.00;;;24.80;99.90;;;;;;4993923;28;20445;-69
2021/06/23 13:39:28;;;;;;;1.67;1.17;;;24.80;99.90;;;;;;4993801;28;20828;-69
2021/06/23 13:41:55;;;;;;;1.53;1.00;;;24.80;99.90;;;;;;4989714;28;20456;-69
2021/06/23 13:44:20;;;;;;;2.33;1.10;;;24.80;99.90;;;;;;4993512;28;20421;-70
2021/06/23 13:46:46;;;;;;;2.90;0.90;;;24.90;99.90;;;;;;4993311;28;20419;-68
2021/06/23 13:49:11;;;;;;;2.03;1.00;;;24.90;99.90;;;;;;4993560;28;20242;-69
2021/06/23 13:51:37;;;;;;;1.70;0.80;;;25.00;99.90;;;;;;4993453;28;20195;-71
2021/06/23 13:54:02;;;;;;;4.00;1.30;;;25.10;99.90;;;;;;4993493;28;20180;-70
2021/06/23 13:56:29;;;;;;;1.87;1.57;;;25.10;99.90;;;;;;4993517;28;20290;-69
2021/06/23 13:58:54;;;;;;;1.37;1.00;;;25.00;99.90;;;;;;4993810;28;20184;-70
2021/06/23 14:01:20;;;;;;;2.83;0.93;;;24.70;99.90;;;;;;4993489;28;20934;-70
2021/06/23 14:03:46;;;;;;;1.10;1.00;;;24.60;99.90;;;;;;4993311;28;20191;-70
2021/06/23 14:06:11;;;;;;;2.03;0.90;;;24.60;99.90;;;;;;4993639;28;20179;-70
2021/06/23 14:08:37;;;;;;;1.53;0.90;;;24.60;99.90;;;;;;4993156;28;20684;-70
2021/06/23 14:11:02;;;;;;;0.97;0.93;;;24.60;99.90;;;;;;4993125;28;20191;-70
2021/06/23 14:13:28;;;;;;;1.63;0.90;;;24.40;99.90;;;;;;4993042;28;20172;-70
2021/06/23 14:15:54;;;;;;;1.27;1.20;;;24.30;99.90;;;;;;4993157;28;20254;-69
2021/06/23 14:18:19;;;;;;;2.00;1.00;;;24.30;99.90;;;;;;4992378;28;20607;-70
2021/06/23 14:20:45;;;;;;;1.10;1.00;;;24.30;99.90;;;;;;4993121;28;20179;-69
2021/06/23 14:23:10;;;;;;;1.73;0.73;;;24.30;99.90;;;;;;4992744;28;20667;-69
2021/06/23 14:25:36;;;;;;;1.87;0.90;;;24.30;99.90;;;;;;4993035;28;20172;-69
2021/06/23 14:28:03;;;;;;;2.20;2.10;;;24.20;99.90;;;;;;4992969;28;20211;-69
2021/06/23 14:30:28;;;;;;;2.40;1.20;;;24.00;99.90;;;;;;4993160;28;20183;-69
2021/06/23 14:32:54;;;;;;;3.27;1.93;;;23.80;99.90;;;;;;4992141;28;20451;-72
2021/06/23 14:35:21;;;;;;;2.30;2.10;;;23.70;99.90;;;;;;4990152;28;20265;-71
2021/06/23 14:37:47;;;;;;;2.23;2.00;;;23.60;99.90;;;;;;4991967;28;20180;-69
2021/06/23 14:40:14;;;;;;;2.70;2.60;;;23.40;99.90;;;;;;4974909;28;20425;-70
2021/06/23 14:42:40;;;;;;;3.07;2.83;;;23.30;99.90;;;;;;4991953;28;20454;-69
2021/06/23 14:45:06;;;;;;;4.53;3.50;;;23.20;99.90;;;;;;4992629;28;20916;-69
2021/06/23 14:47:32;;;;;;;4.63;4.17;;;23.20;99.90;;;;;;4993138;28;20459;-70
2021/06/23 14:49:58;;;;;;;6.47;4.90;;;23.20;99.90;;;;;;4993624;28;20434;-69
2021/06/23 14:52:23;;;;;;;4.30;3.97;;;23.20;99.90;;;;;;4992775;28;20202;-70
2021/06/23 14:54:49;;;;;;;9.20;4.80;;;23.20;99.90;;;;;;4992859;28;20222;-69
2021/06/23 14:57:14;;;;;;;4.80;4.40;;;23.20;99.90;;;;;;4992968;28;20187;-69
2021/06/23 14:59:40;;;;;;;4.00;3.70;;;23.20;99.90;;;;;;4992489;28;20179;-70
2021/06/23 15:02:06;;;;;;;4.90;4.50;;;23.20;99.90;;;;;;4992214;28;20629;-71
2021/06/23 15:04:31;;;;;;;4.23;3.80;;;23.20;99.90;;;;;;4992327;28;20266;-70
2021/06/23 15:06:57;;;;;;;5.40;4.37;;;23.20;99.90;;;;;;4992194;28;20259;-70
2021/06/23 15:09:23;;;;;;;5.07;4.40;;;23.20;99.90;;;;;;4992268;28;20258;-70
2021/06/23 15:11:48;;;;;;;6.17;4.40;;;23.20;99.90;;;;;;4992094;28;20241;-70
2021/06/23 15:14:15;;;;;;;6.80;4.20;;;23.20;99.90;;;;;;4992044;28;20269;-70
2021/06/23 15:16:40;;;;;;;7.13;4.80;;;23.10;99.90;;;;;;4992188;28;20182;-70
2021/06/23 15:19:06;;;;;;;4.90;4.50;;;23.00;99.90;;;;;;4992132;28;20904;-70
2021/06/23 15:21:33;;;;;;;4.60;4.23;;;22.90;99.90;;;;;;4992003;28;20564;-70
2021/06/23 15:23:58;;;;;;;4.67;4.37;;;22.90;99.90;;;;;;4992019;28;20176;-71
2021/06/23 15:26:24;;;;;;;4.23;3.83;;;22.80;99.90;;;;;;4992132;28;20421;-70
2021/06/23 15:28:49;;;;;;;4.40;4.17;;;22.80;99.90;;;;;;4991949;28;20203;-72
2021/06/23 15:31:16;;;;;;;5.23;4.83;;;22.70;99.90;;;;;;4991673;28;20727;-70
2021/06/23 15:33:42;;;;;;;11.03;4.40;;;22.60;99.90;;;;;;4991815;28;20818;-70
2021/06/23 15:36:08;;;;;;;6.93;4.63;;;22.50;99.90;;;;;;4991788;28;20494;-72
2021/06/23 15:38:35;;;;;;;5.03;4.50;;;22.40;99.90;;;;;;4991850;28;20489;-70
2021/06/23 15:41:01;;;;;;;5.57;4.03;;;22.40;99.90;;;;;;4991907;28;20431;-70
2021/06/23 15:43:27;;;;;;;6.57;4.73;;;22.30;99.90;;;;;;4991480;28;20929;-70
2021/06/23 15:45:54;;;;;;;11.40;4.20;;;22.30;99.90;;;;;;4991985;28;20179;-70
2021/06/23 15:48:23;;;;;;;5.43;5.00;;;22.30;99.90;;;;;;4991612;28;20672;-67
2021/06/23 15:50:49;;;;;;;4.83;4.53;;;22.20;99.90;;;;;;4991627;28;20469;-70
2021/06/23 15:53:15;;;;;;;5.43;4.40;;;22.10;99.90;;;;;;4991317;28;20410;-70
2021/06/23 15:55:41;;;;;;;4.63;4.20;;;22.10;99.90;;;;;;4991537;28;20907;-68
2021/06/23 15:58:16;;;;;;;5.83;4.67;;;22.10;99.90;;;;;;4991253;28;20187;-70
2021/06/23 16:00:42;;;;;;;4.40;4.10;;;22.10;99.90;;;;;;4991614;28;20712;-75
2021/06/23 16:03:08;;;;;;;5.03;4.73;;;22.00;99.90;;;;;;4991447;28;20446;-76
2021/06/23 16:05:33;;;;;;;5.47;4.93;;;21.90;99.90;;;;;;4991765;28;20247;-75
2021/06/23 16:07:59;;;;;;;4.67;4.37;;;21.90;99.90;;;;;;4991573;28;20262;-74
2021/06/23 16:10:24;;;;;;;5.87;5.03;;;22.00;99.90;;;;;;4991527;28;20231;-75
2021/06/23 16:12:50;;;;;;;5.00;4.70;;;21.90;99.90;;;;;;4991236;28;20224;-72
2021/06/23 16:15:15;;;;;;;6.03;5.47;;;22.00;99.90;;;;;;4991562;28;20218;-74
2021/06/23 16:17:42;;;;;;;6.37;5.93;;;21.90;99.90;;;;;;4991403;28;20171;-75
2021/06/23 16:20:08;;;;;;;5.13;4.83;;;21.80;99.90;;;;;;4991488;28;20615;-74
2021/06/23 16:22:36;;;;;;;5.20;4.80;;;21.80;99.90;;;;;;4991331;28;20439;-74
2021/06/23 16:25:03;;;;;;;5.77;5.37;;;21.70;99.90;;;;;;4991292;28;20438;-75
2021/06/23 16:27:28;;;;;;;6.97;5.33;;;21.70;99.90;;;;;;4991213;28;20556;-74
2021/06/23 16:29:54;;;;;;;6.40;5.67;;;21.60;99.90;;;;;;4991151;28;20968;-74
2021/06/23 16:32:19;;;;;;;6.77;6.07;;;21.60;99.90;;;;;;4989978;28;20711;-75
2021/06/23 16:34:45;;;;;;;6.43;5.93;;;21.60;99.90;;;;;;4991368;28;20178;-75
2021/06/23 16:37:11;;;;;;;5.70;5.20;;;21.50;99.90;;;;;;4991149;28;20183;-75
2021/06/23 16:39:36;;;;;;;6.40;6.00;;;21.50;99.90;;;;;;4991299;28;20176;-75
2021/06/23 16:42:02;;;;;;;12.03;6.30;;;21.40;99.90;;;;;;4993854;28;20210;-74
2021/06/23 16:44:27;;;;;;;6.67;6.17;;;21.40;99.90;;;;;;4994860;28;20556;-74
2021/06/23 16:46:53;;;;;;;6.43;6.00;;;21.40;99.90;;;;;;4995060;28;20550;-75
2021/06/23 16:49:18;;;;;;;11.60;6.80;;;21.30;99.90;;;;;;4977394;28;20184;-75
2021/06/23 16:51:44;;;;;;;7.33;6.67;;;21.30;99.90;;;;;;4995007;28;20258;-75
2021/06/23 16:54:09;;;;;;;8.13;7.33;;;21.20;99.90;;;;;;4994648;28;20186;-75
2021/06/23 16:56:35;;;;;;;9.33;7.50;;;21.10;99.90;;;;;;4994960;28;20249;-75
2021/06/23 16:59:01;;;;;;;9.90;8.90;;;21.00;99.90;;;;;;4994822;28;20187;-74
2021/06/23 17:01:26;;;;;;;8.90;8.03;;;20.90;99.90;;;;;;4994410;28;20657;-74
2021/06/23 17:03:53;;;;;;;9.47;8.60;;;20.80;99.90;;;;;;4994648;28;20184;-74
2021/06/23 17:06:21;;;;;;;10.03;8.90;;;20.80;99.90;;;;;;4994817;28;20618;-75
2021/06/23 17:08:46;;;;;;;11.00;9.90;;;20.70;99.90;;;;;;4996599;28;20468;-75
2021/06/23 17:11:12;;;;;;;11.30;8.53;;;20.70;99.90;;;;;;4994376;28;20438;-76
2021/06/23 17:13:38;;;;;;;11.70;10.60;;;20.60;99.90;;;;;;4994569;28;20191;-76
2021/06/23 17:16:05;;;;;;;9.87;9.03;;;20.50;99.90;;;;;;4994525;28;20896;-75
2021/06/23 17:18:31;;;;;;;12.20;10.20;;;20.50;99.90;;;;;;4994589;28;20422;-76
2021/06/23 17:20:56;;;;;;;11.80;9.90;;;20.40;99.90;;;;;;4994383;28;20445;-75
2021/06/23 17:23:23;;;;;;;9.80;8.90;;;20.30;99.90;;;;;;4994113;28;20421;-75
2021/06/23 17:25:48;;;;;;;11.50;10.50;;;20.30;99.90;;;;;;4994474;28;20187;-75
2021/06/23 17:28:14;;;;;;;11.97;10.87;;;20.20;99.90;;;;;;4993972;28;20462;-75
2021/06/23 17:30:41;;;;;;;13.80;11.30;;;20.20;99.90;;;;;;4993278;28;20266;-74
2021/06/23 17:33:08;;;;;;;12.80;10.73;;;20.20;99.90;;;;;;4993895;28;20423;-74